Terminal Aerodrome Forecast
Issued by NWS Twin Cities, MN

Home | Current Version | Previous Version | Graphics & Text | Print | Product List | Glossary On
Versions: 1 2 3 4 5 6 7 8 9 10 11 12 13 14 15 16 17 18
000
FTUS43 KMPX 232324
TAFEAU
TAF
KEAU 232324Z 2400/2424 15006KT P6SM BKN050
     FM240900 14006KT 6SM BR BKN015
     FM241400 14007KT P6SM SCT020 BKN250
     FM241600 14012KT P6SM BKN250=

USA.gov is the U.S. government's official web portal to all federal, state and local government web resources and services.